sensor_id;sensor_type;location;lat;lon;timestamp;P1;durP1;ratioP1;P2;durP2;ratioP2
14125;SDS011;7141;49.484;11.242;2022-07-09T00:01:05;4.53;;;2.30;;
14125;SDS011;7141;49.484;11.242;2022-07-09T00:03:31;4.37;;;2.40;;
14125;SDS011;7141;49.484;11.242;2022-07-09T00:05:57;3.47;;;2.20;;
14125;SDS011;7141;49.484;11.242;2022-07-09T00:08:23;3.03;;;2.00;;
14125;SDS011;7141;49.484;11.242;2022-07-09T00:10:49;4.13;;;2.00;;
14125;SDS011;7141;49.484;11.242;2022-07-09T00:13:22;4.67;;;2.27;;
14125;SDS011;7141;49.484;11.242;2022-07-09T00:15:48;3.30;;;2.23;;
14125;SDS011;7141;49.484;11.242;2022-07-09T00:18:15;5.53;;;2.30;;
14125;SDS011;7141;49.484;11.242;2022-07-09T00:20:41;4.07;;;2.20;;
14125;SDS011;7141;49.484;11.242;2022-07-09T00:23:07;6.30;;;2.30;;
14125;SDS011;7141;49.484;11.242;2022-07-09T00:25:33;3.70;;;2.07;;
14125;SDS011;7141;49.484;11.242;2022-07-09T00:27:59;3.37;;;2.30;;
14125;SDS011;7141;49.484;11.242;2022-07-09T00:30:25;3.70;;;2.10;;
14125;SDS011;7141;49.484;11.242;2022-07-09T00:32:51;5.33;;;2.17;;
14125;SDS011;7141;49.484;11.242;2022-07-09T00:35:17;2.53;;;2.00;;
14125;SDS011;7141;49.484;11.242;2022-07-09T00:37:43;3.30;;;2.27;;
14125;SDS011;7141;49.484;11.242;2022-07-09T00:40:09;3.10;;;1.93;;
14125;SDS011;7141;49.484;11.242;2022-07-09T00:42:35;3.20;;;2.10;;
14125;SDS011;7141;49.484;11.242;2022-07-09T00:45:01;3.83;;;2.20;;
14125;SDS011;7141;49.484;11.242;2022-07-09T00:47:27;3.50;;;2.03;;
14125;SDS011;7141;49.484;11.242;2022-07-09T00:49:53;6.03;;;2.50;;
14125;SDS011;7141;49.484;11.242;2022-07-09T00:52:19;3.90;;;2.40;;
14125;SDS011;7141;49.484;11.242;2022-07-09T00:54:46;4.23;;;2.03;;
14125;SDS011;7141;49.484;11.242;2022-07-09T00:57:12;3.93;;;2.23;;
14125;SDS011;7141;49.484;11.242;2022-07-09T00:59:38;3.63;;;2.67;;
14125;SDS011;7141;49.484;11.242;2022-07-09T01:02:08;3.63;;;2.23;;
14125;SDS011;7141;49.484;11.242;2022-07-09T01:04:34;3.90;;;2.40;;
14125;SDS011;7141;49.484;11.242;2022-07-09T01:07:00;4.27;;;2.50;;
14125;SDS011;7141;49.484;11.242;2022-07-09T01:09:27;6.53;;;2.77;;
14125;SDS011;7141;49.484;11.242;2022-07-09T01:11:53;5.27;;;2.20;;
14125;SDS011;7141;49.484;11.242;2022-07-09T01:14:19;4.03;;;2.40;;
14125;SDS011;7141;49.484;11.242;2022-07-09T01:16:45;11.23;;;2.80;;
14125;SDS011;7141;49.484;11.242;2022-07-09T01:19:11;3.97;;;2.40;;
14125;SDS011;7141;49.484;11.242;2022-07-09T01:21:37;4.30;;;2.43;;
14125;SDS011;7141;49.484;11.242;2022-07-09T01:24:03;3.60;;;2.40;;
14125;SDS011;7141;49.484;11.242;2022-07-09T01:26:29;4.03;;;2.63;;
14125;SDS011;7141;49.484;11.242;2022-07-09T01:28:56;2.40;;;1.90;;
14125;SDS011;7141;49.484;11.242;2022-07-09T01:31:22;3.47;;;2.60;;
14125;SDS011;7141;49.484;11.242;2022-07-09T01:33:48;5.57;;;2.23;;
14125;SDS011;7141;49.484;11.242;2022-07-09T01:36:14;5.43;;;2.77;;
14125;SDS011;7141;49.484;11.242;2022-07-09T01:38:39;6.40;;;2.50;;
14125;SDS011;7141;49.484;11.242;2022-07-09T01:41:05;6.00;;;2.83;;
14125;SDS011;7141;49.484;11.242;2022-07-09T01:43:31;4.97;;;2.53;;
14125;SDS011;7141;49.484;11.242;2022-07-09T01:45:58;4.13;;;2.63;;
14125;SDS011;7141;49.484;11.242;2022-07-09T01:48:25;5.53;;;3.30;;
14125;SDS011;7141;49.484;11.242;2022-07-09T01:50:51;5.33;;;2.70;;
14125;SDS011;7141;49.484;11.242;2022-07-09T01:53:18;4.17;;;2.83;;
14125;SDS011;7141;49.484;11.242;2022-07-09T01:55:44;5.47;;;2.30;;
14125;SDS011;7141;49.484;11.242;2022-07-09T01:58:10;4.93;;;2.50;;
14125;SDS011;7141;49.484;11.242;2022-07-09T02:00:36;3.93;;;2.20;;
14125;SDS011;7141;49.484;11.242;2022-07-09T02:03:02;5.57;;;2.60;;
14125;SDS011;7141;49.484;11.242;2022-07-09T02:05:28;4.27;;;2.60;;
14125;SDS011;7141;49.484;11.242;2022-07-09T02:07:54;5.23;;;2.83;;
14125;SDS011;7141;49.484;11.242;2022-07-09T02:10:20;3.77;;;2.23;;
14125;SDS011;7141;49.484;11.242;2022-07-09T02:12:46;2.87;;;2.50;;
14125;SDS011;7141;49.484;11.242;2022-07-09T02:15:12;3.63;;;2.27;;
14125;SDS011;7141;49.484;11.242;2022-07-09T02:17:38;3.53;;;2.30;;
14125;SDS011;7141;49.484;11.242;2022-07-09T02:20:05;5.90;;;2.73;;
14125;SDS011;7141;49.484;11.242;2022-07-09T02:22:31;3.63;;;2.60;;
14125;SDS011;7141;49.484;11.242;2022-07-09T02:24:57;4.13;;;2.27;;
14125;SDS011;7141;49.484;11.242;2022-07-09T02:27:23;4.10;;;2.60;;
14125;SDS011;7141;49.484;11.242;2022-07-09T02:29:49;3.40;;;2.50;;
14125;SDS011;7141;49.484;11.242;2022-07-09T02:32:15;2.90;;;2.37;;
14125;SDS011;7141;49.484;11.242;2022-07-09T02:34:41;2.93;;;2.63;;
14125;SDS011;7141;49.484;11.242;2022-07-09T02:37:07;4.60;;;2.63;;
14125;SDS011;7141;49.484;11.242;2022-07-09T02:39:33;5.00;;;2.20;;
14125;SDS011;7141;49.484;11.242;2022-07-09T02:41:59;2.97;;;2.67;;
14125;SDS011;7141;49.484;11.242;2022-07-09T02:44:25;4.77;;;2.67;;
14125;SDS011;7141;49.484;11.242;2022-07-09T02:46:51;4.97;;;2.90;;
14125;SDS011;7141;49.484;11.242;2022-07-09T02:49:17;4.87;;;2.40;;
14125;SDS011;7141;49.484;11.242;2022-07-09T02:51:43;5.20;;;2.60;;
14125;SDS011;7141;49.484;11.242;2022-07-09T02:54:10;2.87;;;2.20;;
14125;SDS011;7141;49.484;11.242;2022-07-09T02:56:36;5.10;;;2.70;;
14125;SDS011;7141;49.484;11.242;2022-07-09T02:59:02;3.50;;;2.70;;
14125;SDS011;7141;49.484;11.242;2022-07-09T03:01:28;3.10;;;2.50;;
14125;SDS011;7141;49.484;11.242;2022-07-09T03:03:54;6.23;;;2.37;;
14125;SDS011;7141;49.484;11.242;2022-07-09T03:06:20;3.20;;;2.00;;
14125;SDS011;7141;49.484;11.242;2022-07-09T03:08:47;2.60;;;2.20;;
14125;SDS011;7141;49.484;11.242;2022-07-09T03:11:13;2.37;;;2.13;;
14125;SDS011;7141;49.484;11.242;2022-07-09T03:13:39;4.73;;;2.43;;
14125;SDS011;7141;49.484;11.242;2022-07-09T03:16:05;4.47;;;2.60;;
14125;SDS011;7141;49.484;11.242;2022-07-09T03:18:32;5.13;;;2.23;;
14125;SDS011;7141;49.484;11.242;2022-07-09T03:20:58;5.13;;;2.70;;
14125;SDS011;7141;49.484;11.242;2022-07-09T03:23:24;3.03;;;2.50;;
14125;SDS011;7141;49.484;11.242;2022-07-09T03:25:50;4.50;;;2.40;;
14125;SDS011;7141;49.484;11.242;2022-07-09T03:28:16;4.53;;;2.27;;
14125;SDS011;7141;49.484;11.242;2022-07-09T03:30:42;3.60;;;2.30;;
14125;SDS011;7141;49.484;11.242;2022-07-09T03:33:08;4.13;;;2.43;;
14125;SDS011;7141;49.484;11.242;2022-07-09T03:35:34;4.70;;;3.03;;
14125;SDS011;7141;49.484;11.242;2022-07-09T03:38:01;4.77;;;2.70;;
14125;SDS011;7141;49.484;11.242;2022-07-09T03:40:27;4.40;;;2.80;;
14125;SDS011;7141;49.484;11.242;2022-07-09T03:42:53;5.00;;;2.80;;
14125;SDS011;7141;49.484;11.242;2022-07-09T03:45:19;4.33;;;2.67;;
14125;SDS011;7141;49.484;11.242;2022-07-09T03:47:45;6.33;;;3.00;;
14125;SDS011;7141;49.484;11.242;2022-07-09T03:50:13;4.50;;;2.97;;
14125;SDS011;7141;49.484;11.242;2022-07-09T03:52:39;3.37;;;3.00;;
14125;SDS011;7141;49.484;11.242;2022-07-09T03:55:05;3.57;;;2.53;;
14125;SDS011;7141;49.484;11.242;2022-07-09T03:57:31;6.67;;;3.07;;
14125;SDS011;7141;49.484;11.242;2022-07-09T03:59:57;4.00;;;2.80;;
14125;SDS011;7141;49.484;11.242;2022-07-09T04:02:23;4.13;;;2.87;;
14125;SDS011;7141;49.484;11.242;2022-07-09T04:04:49;3.40;;;2.63;;
14125;SDS011;7141;49.484;11.242;2022-07-09T04:07:15;5.87;;;2.97;;
14125;SDS011;7141;49.484;11.242;2022-07-09T04:09:41;4.67;;;3.03;;
14125;SDS011;7141;49.484;11.242;2022-07-09T04:12:07;6.17;;;3.03;;
14125;SDS011;7141;49.484;11.242;2022-07-09T04:14:33;3.87;;;2.93;;
14125;SDS011;7141;49.484;11.242;2022-07-09T04:16:59;5.93;;;3.23;;
14125;SDS011;7141;49.484;11.242;2022-07-09T04:19:25;4.23;;;2.63;;
14125;SDS011;7141;49.484;11.242;2022-07-09T04:21:51;4.97;;;2.57;;
14125;SDS011;7141;49.484;11.242;2022-07-09T04:24:17;5.03;;;2.80;;
14125;SDS011;7141;49.484;11.242;2022-07-09T04:26:43;3.20;;;2.60;;
14125;SDS011;7141;49.484;11.242;2022-07-09T04:29:09;6.40;;;2.77;;
14125;SDS011;7141;49.484;11.242;2022-07-09T04:31:35;3.30;;;2.10;;
14125;SDS011;7141;49.484;11.242;2022-07-09T04:34:01;3.30;;;2.40;;
14125;SDS011;7141;49.484;11.242;2022-07-09T04:36:27;3.43;;;2.40;;
14125;SDS011;7141;49.484;11.242;2022-07-09T04:38:54;4.10;;;2.47;;
14125;SDS011;7141;49.484;11.242;2022-07-09T04:41:21;3.77;;;2.50;;
14125;SDS011;7141;49.484;11.242;2022-07-09T04:43:47;3.40;;;2.20;;
14125;SDS011;7141;49.484;11.242;2022-07-09T04:46:13;4.33;;;2.40;;
14125;SDS011;7141;49.484;11.242;2022-07-09T04:48:41;3.67;;;2.63;;
14125;SDS011;7141;49.484;11.242;2022-07-09T04:51:07;4.80;;;2.30;;
14125;SDS011;7141;49.484;11.242;2022-07-09T04:53:33;5.63;;;2.60;;
14125;SDS011;7141;49.484;11.242;2022-07-09T04:55:59;6.10;;;2.83;;
14125;SDS011;7141;49.484;11.242;2022-07-09T04:58:25;5.30;;;2.70;;
14125;SDS011;7141;49.484;11.242;2022-07-09T05:00:51;5.27;;;2.73;;
14125;SDS011;7141;49.484;11.242;2022-07-09T05:03:17;3.87;;;2.57;;
14125;SDS011;7141;49.484;11.242;2022-07-09T05:05:43;3.70;;;2.77;;
14125;SDS011;7141;49.484;11.242;2022-07-09T05:08:09;4.20;;;2.70;;
14125;SDS011;7141;49.484;11.242;2022-07-09T05:10:35;3.03;;;2.37;;
14125;SDS011;7141;49.484;11.242;2022-07-09T05:13:01;5.13;;;2.10;;
14125;SDS011;7141;49.484;11.242;2022-07-09T05:15:27;4.60;;;2.40;;
14125;SDS011;7141;49.484;11.242;2022-07-09T05:17:56;2.83;;;2.43;;
14125;SDS011;7141;49.484;11.242;2022-07-09T05:20:22;8.77;;;3.07;;
14125;SDS011;7141;49.484;11.242;2022-07-09T05:22:47;4.97;;;2.70;;
14125;SDS011;7141;49.484;11.242;2022-07-09T05:25:13;3.20;;;2.10;;
14125;SDS011;7141;49.484;11.242;2022-07-09T05:27:40;4.00;;;2.07;;
14125;SDS011;7141;49.484;11.242;2022-07-09T05:30:06;4.10;;;1.93;;
14125;SDS011;7141;49.484;11.242;2022-07-09T05:32:33;5.47;;;1.97;;
14125;SDS011;7141;49.484;11.242;2022-07-09T05:34:59;2.50;;;1.90;;
14125;SDS011;7141;49.484;11.242;2022-07-09T05:37:25;2.50;;;2.00;;
14125;SDS011;7141;49.484;11.242;2022-07-09T05:39:51;3.90;;;1.87;;
14125;SDS011;7141;49.484;11.242;2022-07-09T05:42:17;4.90;;;2.10;;
14125;SDS011;7141;49.484;11.242;2022-07-09T05:44:43;2.40;;;2.13;;
14125;SDS011;7141;49.484;11.242;2022-07-09T05:47:09;3.30;;;2.00;;
14125;SDS011;7141;49.484;11.242;2022-07-09T05:49:35;2.90;;;2.00;;
14125;SDS011;7141;49.484;11.242;2022-07-09T05:52:01;5.00;;;1.80;;
14125;SDS011;7141;49.484;11.242;2022-07-09T05:54:27;3.30;;;1.93;;
14125;SDS011;7141;49.484;11.242;2022-07-09T05:56:53;4.27;;;2.00;;
14125;SDS011;7141;49.484;11.242;2022-07-09T05:59:19;5.27;;;2.20;;
14125;SDS011;7141;49.484;11.242;2022-07-09T06:01:45;4.70;;;2.57;;
14125;SDS011;7141;49.484;11.242;2022-07-09T06:04:11;2.37;;;1.90;;
14125;SDS011;7141;49.484;11.242;2022-07-09T06:06:37;4.70;;;1.90;;
14125;SDS011;7141;49.484;11.242;2022-07-09T06:09:03;4.03;;;2.03;;
14125;SDS011;7141;49.484;11.242;2022-07-09T06:11:29;3.67;;;2.20;;
14125;SDS011;7141;49.484;11.242;2022-07-09T06:13:55;3.07;;;2.17;;
14125;SDS011;7141;49.484;11.242;2022-07-09T06:16:21;3.20;;;2.10;;
14125;SDS011;7141;49.484;11.242;2022-07-09T06:18:47;2.83;;;2.00;;
14125;SDS011;7141;49.484;11.242;2022-07-09T06:21:13;3.77;;;2.23;;
14125;SDS011;7141;49.484;11.242;2022-07-09T06:23:39;5.43;;;2.33;;
14125;SDS011;7141;49.484;11.242;2022-07-09T06:26:05;2.03;;;1.57;;
14125;SDS011;7141;49.484;11.242;2022-07-09T06:28:31;5.57;;;2.20;;
14125;SDS011;7141;49.484;11.242;2022-07-09T06:30:58;2.70;;;2.13;;
14125;SDS011;7141;49.484;11.242;2022-07-09T06:33:24;4.10;;;2.27;;
14125;SDS011;7141;49.484;11.242;2022-07-09T06:35:50;3.50;;;2.10;;
14125;SDS011;7141;49.484;11.242;2022-07-09T06:38:16;3.40;;;2.17;;
14125;SDS011;7141;49.484;11.242;2022-07-09T06:40:42;3.83;;;2.10;;
14125;SDS011;7141;49.484;11.242;2022-07-09T06:43:08;3.30;;;2.20;;
14125;SDS011;7141;49.484;11.242;2022-07-09T06:45:35;4.33;;;2.27;;
14125;SDS011;7141;49.484;11.242;2022-07-09T06:48:01;3.17;;;2.40;;
14125;SDS011;7141;49.484;11.242;2022-07-09T06:50:27;5.40;;;2.03;;
14125;SDS011;7141;49.484;11.242;2022-07-09T06:52:53;4.93;;;2.53;;
14125;SDS011;7141;49.484;11.242;2022-07-09T06:55:19;4.20;;;2.43;;
14125;SDS011;7141;49.484;11.242;2022-07-09T06:57:45;3.60;;;2.90;;
14125;SDS011;7141;49.484;11.242;2022-07-09T07:00:11;5.77;;;2.70;;
14125;SDS011;7141;49.484;11.242;2022-07-09T07:02:37;4.13;;;2.70;;
14125;SDS011;7141;49.484;11.242;2022-07-09T07:05:03;5.47;;;2.30;;
14125;SDS011;7141;49.484;11.242;2022-07-09T07:07:29;4.23;;;2.20;;
14125;SDS011;7141;49.484;11.242;2022-07-09T07:09:55;7.27;;;2.63;;
14125;SDS011;7141;49.484;11.242;2022-07-09T07:12:21;4.43;;;2.40;;
14125;SDS011;7141;49.484;11.242;2022-07-09T07:14:47;4.27;;;2.07;;
14125;SDS011;7141;49.484;11.242;2022-07-09T07:17:13;5.37;;;2.37;;
14125;SDS011;7141;49.484;11.242;2022-07-09T07:19:40;6.17;;;2.40;;
14125;SDS011;7141;49.484;11.242;2022-07-09T07:22:06;5.60;;;2.30;;
14125;SDS011;7141;49.484;11.242;2022-07-09T07:24:32;2.43;;;2.20;;
14125;SDS011;7141;49.484;11.242;2022-07-09T07:26:57;4.90;;;2.53;;
14125;SDS011;7141;49.484;11.242;2022-07-09T07:29:24;5.00;;;2.57;;
14125;SDS011;7141;49.484;11.242;2022-07-09T07:31:51;3.93;;;2.57;;
14125;SDS011;7141;49.484;11.242;2022-07-09T07:34:17;5.10;;;2.60;;
14125;SDS011;7141;49.484;11.242;2022-07-09T07:36:47;3.67;;;2.03;;
14125;SDS011;7141;49.484;11.242;2022-07-09T07:39:13;4.10;;;2.30;;
14125;SDS011;7141;49.484;11.242;2022-07-09T07:41:39;7.03;;;2.60;;
14125;SDS011;7141;49.484;11.242;2022-07-09T07:44:05;2.17;;;1.60;;
14125;SDS011;7141;49.484;11.242;2022-07-09T07:46:31;4.37;;;1.90;;
14125;SDS011;7141;49.484;11.242;2022-07-09T07:48:57;3.37;;;2.07;;
14125;SDS011;7141;49.484;11.242;2022-07-09T07:51:23;5.23;;;2.00;;
14125;SDS011;7141;49.484;11.242;2022-07-09T07:53:49;3.70;;;1.80;;
14125;SDS011;7141;49.484;11.242;2022-07-09T07:56:18;4.87;;;1.97;;
14125;SDS011;7141;49.484;11.242;2022-07-09T07:58:44;6.57;;;1.57;;
14125;SDS011;7141;49.484;11.242;2022-07-09T08:01:10;3.77;;;1.90;;
14125;SDS011;7141;49.484;11.242;2022-07-09T08:03:36;4.30;;;1.90;;
14125;SDS011;7141;49.484;11.242;2022-07-09T08:06:02;3.00;;;1.90;;
14125;SDS011;7141;49.484;11.242;2022-07-09T08:08:28;3.63;;;1.60;;
14125;SDS011;7141;49.484;11.242;2022-07-09T08:10:54;3.37;;;1.97;;
14125;SDS011;7141;49.484;11.242;2022-07-09T08:13:20;3.67;;;1.70;;
14125;SDS011;7141;49.484;11.242;2022-07-09T08:15:46;5.10;;;2.13;;
14125;SDS011;7141;49.484;11.242;2022-07-09T08:18:12;3.60;;;1.60;;
14125;SDS011;7141;49.484;11.242;2022-07-09T08:20:39;2.40;;;1.77;;
14125;SDS011;7141;49.484;11.242;2022-07-09T08:23:05;4.03;;;1.90;;
14125;SDS011;7141;49.484;11.242;2022-07-09T08:25:31;2.70;;;1.73;;
14125;SDS011;7141;49.484;11.242;2022-07-09T08:27:57;5.37;;;2.60;;
14125;SDS011;7141;49.484;11.242;2022-07-09T08:30:23;3.27;;;2.00;;
14125;SDS011;7141;49.484;11.242;2022-07-09T08:32:49;3.00;;;1.80;;
14125;SDS011;7141;49.484;11.242;2022-07-09T08:35:15;2.57;;;1.70;;
14125;SDS011;7141;49.484;11.242;2022-07-09T08:37:41;2.20;;;1.60;;
14125;SDS011;7141;49.484;11.242;2022-07-09T08:40:07;2.80;;;1.90;;
14125;SDS011;7141;49.484;11.242;2022-07-09T08:42:35;4.13;;;2.20;;
14125;SDS011;7141;49.484;11.242;2022-07-09T08:45:01;4.13;;;1.90;;
14125;SDS011;7141;49.484;11.242;2022-07-09T08:47:27;3.37;;;1.93;;
14125;SDS011;7141;49.484;11.242;2022-07-09T08:49:56;3.20;;;1.63;;
14125;SDS011;7141;49.484;11.242;2022-07-09T08:52:23;3.43;;;1.73;;
14125;SDS011;7141;49.484;11.242;2022-07-09T08:54:50;5.27;;;1.80;;
14125;SDS011;7141;49.484;11.242;2022-07-09T08:57:18;4.43;;;1.87;;
14125;SDS011;7141;49.484;11.242;2022-07-09T08:59:44;2.93;;;1.93;;
14125;SDS011;7141;49.484;11.242;2022-07-09T09:02:10;4.27;;;2.10;;
14125;SDS011;7141;49.484;11.242;2022-07-09T09:04:38;4.60;;;1.80;;
14125;SDS011;7141;49.484;11.242;2022-07-09T09:07:20;3.23;;;1.87;;
14125;SDS011;7141;49.484;11.242;2022-07-09T09:09:46;3.13;;;1.70;;
14125;SDS011;7141;49.484;11.242;2022-07-09T09:12:13;3.67;;;1.77;;
14125;SDS011;7141;49.484;11.242;2022-07-09T09:14:39;3.13;;;1.80;;
14125;SDS011;7141;49.484;11.242;2022-07-09T09:17:13;3.90;;;1.60;;
14125;SDS011;7141;49.484;11.242;2022-07-09T09:19:40;4.40;;;1.93;;
14125;SDS011;7141;49.484;11.242;2022-07-09T09:22:06;3.73;;;1.80;;
14125;SDS011;7141;49.484;11.242;2022-07-09T09:24:33;3.63;;;2.00;;
14125;SDS011;7141;49.484;11.242;2022-07-09T09:27:00;6.43;;;2.20;;
14125;SDS011;7141;49.484;11.242;2022-07-09T09:29:26;4.93;;;1.77;;
14125;SDS011;7141;49.484;11.242;2022-07-09T09:31:53;9.63;;;1.70;;
14125;SDS011;7141;49.484;11.242;2022-07-09T09:34:19;3.47;;;1.57;;
14125;SDS011;7141;49.484;11.242;2022-07-09T09:36:51;5.37;;;1.60;;
14125;SDS011;7141;49.484;11.242;2022-07-09T09:39:22;1.63;;;1.40;;
14125;SDS011;7141;49.484;11.242;2022-07-09T09:41:52;5.63;;;1.50;;
14125;SDS011;7141;49.484;11.242;2022-07-09T09:44:19;4.93;;;1.70;;
14125;SDS011;7141;49.484;11.242;2022-07-09T09:46:46;2.40;;;1.50;;
14125;SDS011;7141;49.484;11.242;2022-07-09T09:49:14;4.83;;;1.70;;
14125;SDS011;7141;49.484;11.242;2022-07-09T09:51:48;3.40;;;1.70;;
14125;SDS011;7141;49.484;11.242;2022-07-09T09:54:16;2.87;;;1.60;;
14125;SDS011;7141;49.484;11.242;2022-07-09T09:56:42;2.70;;;1.60;;
14125;SDS011;7141;49.484;11.242;2022-07-09T09:59:09;5.07;;;1.80;;
14125;SDS011;7141;49.484;11.242;2022-07-09T10:01:35;2.20;;;1.73;;
14125;SDS011;7141;49.484;11.242;2022-07-09T10:04:01;2.83;;;1.50;;
14125;SDS011;7141;49.484;11.242;2022-07-09T10:06:27;2.90;;;1.80;;
14125;SDS011;7141;49.484;11.242;2022-07-09T10:08:54;3.80;;;1.80;;
14125;SDS011;7141;49.484;11.242;2022-07-09T10:11:21;2.27;;;1.73;;
14125;SDS011;7141;49.484;11.242;2022-07-09T10:13:50;3.17;;;1.60;;
14125;SDS011;7141;49.484;11.242;2022-07-09T10:16:16;4.77;;;1.70;;
14125;SDS011;7141;49.484;11.242;2022-07-09T10:18:52;3.43;;;1.70;;
14125;SDS011;7141;49.484;11.242;2022-07-09T10:21:18;4.90;;;1.50;;
14125;SDS011;7141;49.484;11.242;2022-07-09T10:23:55;4.00;;;1.77;;
14125;SDS011;7141;49.484;11.242;2022-07-09T10:26:21;2.47;;;1.70;;
14125;SDS011;7141;49.484;11.242;2022-07-09T10:28:47;2.37;;;1.70;;
14125;SDS011;7141;49.484;11.242;2022-07-09T10:31:17;4.17;;;2.00;;
14125;SDS011;7141;49.484;11.242;2022-07-09T10:33:48;1.50;;;1.37;;
14125;SDS011;7141;49.484;11.242;2022-07-09T10:36:17;2.97;;;1.67;;
14125;SDS011;7141;49.484;11.242;2022-07-09T10:38:51;3.33;;;1.30;;
14125;SDS011;7141;49.484;11.242;2022-07-09T10:41:22;3.63;;;1.57;;
14125;SDS011;7141;49.484;11.242;2022-07-09T10:43:52;2.90;;;1.60;;
14125;SDS011;7141;49.484;11.242;2022-07-09T10:46:18;2.10;;;1.70;;
14125;SDS011;7141;49.484;11.242;2022-07-09T10:48:45;3.03;;;1.90;;
14125;SDS011;7141;49.484;11.242;2022-07-09T10:51:21;2.97;;;1.60;;
14125;SDS011;7141;49.484;11.242;2022-07-09T10:53:47;3.20;;;1.47;;
14125;SDS011;7141;49.484;11.242;2022-07-09T10:56:19;2.20;;;1.43;;
14125;SDS011;7141;49.484;11.242;2022-07-09T10:58:46;1.50;;;1.30;;
14125;SDS011;7141;49.484;11.242;2022-07-09T11:01:18;2.37;;;1.37;;
14125;SDS011;7141;49.484;11.242;2022-07-09T11:03:46;5.67;;;1.60;;
14125;SDS011;7141;49.484;11.242;2022-07-09T11:06:13;3.10;;;1.50;;
14125;SDS011;7141;49.484;11.242;2022-07-09T11:08:39;3.40;;;1.60;;
14125;SDS011;7141;49.484;11.242;2022-07-09T11:11:05;3.33;;;1.60;;
14125;SDS011;7141;49.484;11.242;2022-07-09T11:13:31;3.33;;;1.70;;
14125;SDS011;7141;49.484;11.242;2022-07-09T11:15:58;3.30;;;1.70;;
14125;SDS011;7141;49.484;11.242;2022-07-09T11:18:26;3.10;;;1.57;;
14125;SDS011;7141;49.484;11.242;2022-07-09T11:20:52;2.17;;;1.47;;
14125;SDS011;7141;49.484;11.242;2022-07-09T11:23:18;2.03;;;1.60;;
14125;SDS011;7141;49.484;11.242;2022-07-09T11:25:44;2.70;;;1.57;;
14125;SDS011;7141;49.484;11.242;2022-07-09T11:28:18;3.33;;;1.70;;
14125;SDS011;7141;49.484;11.242;2022-07-09T11:30:44;4.50;;;1.50;;
14125;SDS011;7141;49.484;11.242;2022-07-09T11:33:13;3.13;;;1.90;;
14125;SDS011;7141;49.484;11.242;2022-07-09T11:35:39;1.50;;;1.40;;
14125;SDS011;7141;49.484;11.242;2022-07-09T11:38:09;3.40;;;1.57;;
14125;SDS011;7141;49.484;11.242;2022-07-09T11:40:36;2.37;;;1.40;;
14125;SDS011;7141;49.484;11.242;2022-07-09T11:43:02;2.67;;;1.60;;
14125;SDS011;7141;49.484;11.242;2022-07-09T11:45:37;2.43;;;1.50;;
14125;SDS011;7141;49.484;11.242;2022-07-09T11:48:05;3.23;;;1.60;;
14125;SDS011;7141;49.484;11.242;2022-07-09T11:50:31;5.50;;;2.00;;
14125;SDS011;7141;49.484;11.242;2022-07-09T11:52:57;3.23;;;1.90;;
14125;SDS011;7141;49.484;11.242;2022-07-09T11:55:30;3.10;;;1.87;;
14125;SDS011;7141;49.484;11.242;2022-07-09T11:57:57;2.80;;;1.67;;
14125;SDS011;7141;49.484;11.242;2022-07-09T12:00:25;4.20;;;1.63;;
14125;SDS011;7141;49.484;11.242;2022-07-09T12:02:52;4.00;;;1.60;;
14125;SDS011;7141;49.484;11.242;2022-07-09T12:05:28;1.70;;;1.60;;
14125;SDS011;7141;49.484;11.242;2022-07-09T12:07:55;3.13;;;1.63;;
14125;SDS011;7141;49.484;11.242;2022-07-09T12:13:17;1.80;;;1.60;;
14125;SDS011;7141;49.484;11.242;2022-07-09T12:15:43;3.33;;;1.90;;
14125;SDS011;7141;49.484;11.242;2022-07-09T12:18:09;3.47;;;1.77;;
14125;SDS011;7141;49.484;11.242;2022-07-09T12:20:35;5.17;;;2.00;;
14125;SDS011;7141;49.484;11.242;2022-07-09T12:23:01;2.53;;;1.77;;
14125;SDS011;7141;49.484;11.242;2022-07-09T12:25:27;3.07;;;1.67;;
14125;SDS011;7141;49.484;11.242;2022-07-09T12:27:54;2.87;;;1.67;;
14125;SDS011;7141;49.484;11.242;2022-07-09T12:30:20;2.43;;;1.60;;
14125;SDS011;7141;49.484;11.242;2022-07-09T12:32:46;1.87;;;1.70;;
14125;SDS011;7141;49.484;11.242;2022-07-09T12:35:12;2.60;;;1.93;;
14125;SDS011;7141;49.484;11.242;2022-07-09T12:37:38;3.20;;;1.70;;
14125;SDS011;7141;49.484;11.242;2022-07-09T12:40:05;3.30;;;1.63;;
14125;SDS011;7141;49.484;11.242;2022-07-09T12:42:31;1.83;;;1.60;;
14125;SDS011;7141;49.484;11.242;2022-07-09T12:44:57;3.63;;;1.70;;
14125;SDS011;7141;49.484;11.242;2022-07-09T12:47:23;3.40;;;1.70;;
14125;SDS011;7141;49.484;11.242;2022-07-09T12:49:49;4.63;;;1.70;;
14125;SDS011;7141;49.484;11.242;2022-07-09T12:52:16;4.17;;;1.53;;
14125;SDS011;7141;49.484;11.242;2022-07-09T12:54:42;3.40;;;1.57;;
14125;SDS011;7141;49.484;11.242;2022-07-09T12:57:09;3.53;;;1.80;;
14125;SDS011;7141;49.484;11.242;2022-07-09T12:59:35;3.70;;;1.83;;
14125;SDS011;7141;49.484;11.242;2022-07-09T13:02:01;2.17;;;1.70;;
14125;SDS011;7141;49.484;11.242;2022-07-09T13:04:27;2.90;;;1.60;;
14125;SDS011;7141;49.484;11.242;2022-07-09T13:06:53;2.97;;;1.73;;
14125;SDS011;7141;49.484;11.242;2022-07-09T13:09:19;2.23;;;1.57;;
14125;SDS011;7141;49.484;11.242;2022-07-09T13:11:45;3.70;;;1.80;;
14125;SDS011;7141;49.484;11.242;2022-07-09T13:14:13;4.10;;;1.70;;
14125;SDS011;7141;49.484;11.242;2022-07-09T13:16:39;1.90;;;1.47;;
14125;SDS011;7141;49.484;11.242;2022-07-09T13:19:05;3.00;;;1.57;;
14125;SDS011;7141;49.484;11.242;2022-07-09T13:21:31;6.07;;;1.87;;
14125;SDS011;7141;49.484;11.242;2022-07-09T13:23:57;4.40;;;1.60;;
14125;SDS011;7141;49.484;11.242;2022-07-09T13:26:23;2.23;;;1.70;;
14125;SDS011;7141;49.484;11.242;2022-07-09T13:28:49;2.93;;;1.70;;
14125;SDS011;7141;49.484;11.242;2022-07-09T13:31:15;5.57;;;1.97;;
14125;SDS011;7141;49.484;11.242;2022-07-09T13:33:41;6.13;;;1.70;;
14125;SDS011;7141;49.484;11.242;2022-07-09T13:36:07;2.67;;;1.80;;
14125;SDS011;7141;49.484;11.242;2022-07-09T13:38:33;2.27;;;1.50;;
14125;SDS011;7141;49.484;11.242;2022-07-09T13:41:00;3.33;;;1.77;;
14125;SDS011;7141;49.484;11.242;2022-07-09T13:43:26;1.57;;;1.43;;
14125;SDS011;7141;49.484;11.242;2022-07-09T13:45:52;2.53;;;1.60;;
14125;SDS011;7141;49.484;11.242;2022-07-09T13:48:20;2.80;;;1.67;;
14125;SDS011;7141;49.484;11.242;2022-07-09T13:50:46;4.03;;;2.87;;
14125;SDS011;7141;49.484;11.242;2022-07-09T13:53:12;2.37;;;1.63;;
14125;SDS011;7141;49.484;11.242;2022-07-09T13:55:38;2.37;;;1.67;;
14125;SDS011;7141;49.484;11.242;2022-07-09T13:58:07;2.50;;;1.70;;
14125;SDS011;7141;49.484;11.242;2022-07-09T14:00:36;3.17;;;1.80;;
14125;SDS011;7141;49.484;11.242;2022-07-09T14:03:02;2.10;;;1.57;;
14125;SDS011;7141;49.484;11.242;2022-07-09T14:05:28;2.20;;;1.70;;
14125;SDS011;7141;49.484;11.242;2022-07-09T14:07:54;2.70;;;1.90;;
14125;SDS011;7141;49.484;11.242;2022-07-09T14:10:21;3.53;;;1.63;;
14125;SDS011;7141;49.484;11.242;2022-07-09T14:12:47;2.60;;;1.77;;
14125;SDS011;7141;49.484;11.242;2022-07-09T14:15:13;3.00;;;2.08;;
14125;SDS011;7141;49.484;11.242;2022-07-09T14:17:40;2.07;;;1.87;;
14125;SDS011;7141;49.484;11.242;2022-07-09T14:20:06;2.47;;;1.60;;
14125;SDS011;7141;49.484;11.242;2022-07-09T14:22:33;2.33;;;1.80;;
14125;SDS011;7141;49.484;11.242;2022-07-09T14:24:59;2.43;;;2.07;;
14125;SDS011;7141;49.484;11.242;2022-07-09T14:27:25;2.20;;;2.00;;
14125;SDS011;7141;49.484;11.242;2022-07-09T14:29:51;5.20;;;2.17;;
14125;SDS011;7141;49.484;11.242;2022-07-09T14:32:17;3.77;;;2.10;;
14125;SDS011;7141;49.484;11.242;2022-07-09T14:34:43;2.30;;;1.93;;
14125;SDS011;7141;49.484;11.242;2022-07-09T14:37:09;2.20;;;2.00;;
14125;SDS011;7141;49.484;11.242;2022-07-09T14:39:35;2.30;;;2.10;;
14125;SDS011;7141;49.484;11.242;2022-07-09T14:42:01;2.80;;;2.20;;
14125;SDS011;7141;49.484;11.242;2022-07-09T14:44:27;3.93;;;2.10;;
14125;SDS011;7141;49.484;11.242;2022-07-09T14:46:55;2.63;;;1.80;;